createdAt,value
2022-12-26T00:01:08.067Z,18.92
2022-12-26T00:03:35.858Z,20.60
2022-12-26T00:06:05.367Z,21.27
2022-12-26T00:08:33.009Z,20.17
2022-12-26T00:11:00.697Z,21.20
2022-12-26T00:13:39.621Z,23.67
2022-12-26T00:16:10.353Z,22.20
2022-12-26T00:18:38.290Z,22.70
2022-12-26T00:21:08.348Z,22.92
2022-12-26T00:23:36.846Z,27.98
2022-12-26T00:26:05.870Z,24.35
2022-12-26T00:28:33.804Z,25.35
2022-12-26T00:31:06.679Z,22.02
2022-12-26T00:33:35.368Z,22.02
2022-12-26T00:36:04.066Z,23.35
2022-12-26T00:38:33.289Z,23.55
2022-12-26T00:41:01.011Z,23.75
2022-12-26T00:43:28.722Z,23.98
2022-12-26T00:45:56.609Z,25.90
2022-12-26T00:48:24.361Z,23.83
2022-12-26T00:50:52.188Z,29.23
2022-12-26T00:53:20.791Z,24.90
2022-12-26T00:55:49.818Z,26.65
2022-12-26T00:58:17.519Z,23.13
2022-12-26T01:00:45.334Z,25.38
2022-12-26T01:03:14.165Z,25.75
2022-12-26T01:05:43.024Z,27.20
2022-12-26T01:08:21.681Z,23.67
2022-12-26T01:10:54.264Z,24.30
2022-12-26T01:13:22.150Z,26.75
2022-12-26T01:15:50.826Z,24.30
2022-12-26T01:18:18.664Z,26.25
2022-12-26T01:20:46.458Z,21.67
2022-12-26T01:23:14.206Z,24.48
2022-12-26T01:26:18.818Z,24.27
2022-12-26T01:28:31.120Z,24.85
2022-12-26T01:31:02.428Z,26.33
2022-12-26T01:33:30.107Z,26.30
2022-12-26T01:35:57.824Z,27.23
2022-12-26T01:38:25.556Z,30.70
2022-12-26T01:41:13.503Z,32.00
2022-12-26T01:43:57.848Z,30.55
2022-12-26T01:46:30.475Z,32.30
2022-12-26T01:49:01.647Z,30.65
2022-12-26T01:51:32.719Z,34.28
2022-12-26T01:54:40.001Z,35.45
2022-12-26T01:56:52.358Z,31.75
2022-12-26T01:59:26.500Z,32.58
2022-12-26T02:01:56.242Z,37.10
2022-12-26T02:04:47.047Z,42.08
2022-12-26T02:07:15.173Z,44.55
2022-12-26T02:12:35.861Z,31.73
2022-12-26T02:15:07.525Z,38.53
2022-12-26T02:17:35.247Z,36.28
2022-12-26T02:20:19.759Z,39.33
2022-12-26T02:23:25.227Z,33.67
2022-12-26T02:26:19.810Z,35.50
2022-12-26T02:29:25.980Z,37.60
2022-12-26T02:32:02.096Z,33.92
2022-12-26T02:34:38.333Z,43.33
2022-12-26T02:37:21.860Z,31.25
2022-12-26T02:40:04.445Z,41.15
2022-12-26T02:42:44.543Z,34.83
2022-12-26T02:45:39.566Z,31.98
2022-12-26T02:48:16.072Z,34.53
2022-12-26T02:51:13.379Z,34.60
2022-12-26T02:54:06.289Z,33.72
2022-12-26T02:56:52.228Z,35.97
2022-12-26T02:59:54.172Z,34.75
2022-12-26T03:02:47.402Z,31.65
2022-12-26T03:05:40.546Z,36.20
2022-12-26T03:08:31.048Z,32.47
2022-12-26T03:11:17.431Z,32.10
2022-12-26T03:13:47.191Z,33.85
2022-12-26T03:16:34.631Z,31.38
2022-12-26T03:19:04.876Z,33.38
2022-12-26T03:21:38.459Z,31.20
2022-12-26T03:24:09.070Z,34.10
2022-12-26T03:26:40.828Z,32.22
2022-12-26T03:29:28.494Z,33.33
2022-12-26T03:31:56.316Z,33.42
2022-12-26T03:34:24.532Z,32.95
2022-12-26T03:37:07.035Z,32.25
2022-12-26T03:40:02.166Z,34.28
2022-12-26T03:45:48.103Z,34.08
2022-12-26T03:48:41.193Z,33.85
2022-12-26T03:51:32.441Z,27.38
2022-12-26T03:54:25.417Z,31.90
2022-12-26T03:57:13.814Z,26.27
2022-12-26T04:02:50.401Z,31.48
2022-12-26T04:05:37.655Z,30.25
2022-12-26T04:08:31.490Z,28.55
2022-12-26T04:11:20.008Z,29.45
2022-12-26T04:14:13.495Z,27.52
2022-12-26T04:17:18.456Z,31.85
2022-12-26T04:19:59.762Z,24.02
2022-12-26T04:22:53.477Z,24.83
2022-12-26T04:25:48.363Z,23.33
2022-12-26T04:28:39.687Z,27.77
2022-12-26T04:34:18.456Z,23.58
2022-12-26T04:37:08.376Z,29.02
2022-12-26T04:39:55.493Z,23.40
2022-12-26T04:42:43.343Z,24.67
2022-12-26T04:45:14.831Z,22.35
2022-12-26T04:48:03.011Z,26.42
2022-12-26T04:50:29.742Z,23.98
2022-12-26T04:52:59.755Z,24.38
2022-12-26T04:55:29.595Z,27.05
2022-12-26T04:57:57.387Z,25.40
2022-12-26T05:00:28.139Z,26.98
2022-12-26T05:03:18.769Z,26.33
2022-12-26T05:06:08.433Z,27.98
2022-12-26T05:08:55.642Z,32.47
2022-12-26T05:11:23.686Z,29.70
2022-12-26T05:16:39.340Z,32.28
2022-12-26T05:19:25.309Z,28.75
2022-12-26T05:22:10.559Z,27.48
2022-12-26T05:24:59.450Z,31.50
2022-12-26T05:27:52.390Z,28.60
2022-12-26T05:30:20.204Z,30.42
2022-12-26T05:33:06.529Z,30.83
2022-12-26T05:35:36.180Z,32.92
2022-12-26T05:38:04.531Z,29.05
2022-12-26T05:40:32.546Z,25.90
2022-12-26T05:43:00.305Z,26.13
2022-12-26T05:45:27.991Z,29.75
2022-12-26T05:48:00.521Z,27.17
2022-12-26T05:50:28.784Z,26.83
2022-12-26T05:52:57.704Z,23.42
2022-12-26T05:55:25.946Z,21.27
2022-12-26T05:57:53.749Z,22.73
2022-12-26T06:00:21.554Z,24.98
2022-12-26T06:02:49.937Z,24.02
2022-12-26T06:05:19.105Z,22.90
2022-12-26T06:07:46.794Z,20.42
2022-12-26T06:10:14.557Z,21.50
2022-12-26T06:12:42.216Z,18.38
2022-12-26T06:15:10.865Z,20.38
2022-12-26T06:17:38.563Z,22.17
2022-12-26T06:20:07.398Z,17.50
2022-12-26T06:22:36.494Z,19.27
2022-12-26T06:25:04.263Z,19.45
2022-12-26T06:27:31.953Z,16.75
2022-12-26T06:29:59.651Z,17.02
2022-12-26T06:32:27.332Z,14.52
2022-12-26T06:34:55.057Z,14.60
2022-12-26T06:37:22.697Z,16.17
2022-12-26T06:39:51.741Z,12.05
2022-12-26T06:42:19.421Z,14.85
2022-12-26T06:44:47.077Z,13.63
2022-12-26T06:47:14.796Z,10.98
2022-12-26T06:49:42.500Z,12.68
2022-12-26T06:52:12.039Z,16.38
2022-12-26T06:54:39.756Z,13.35
2022-12-26T06:57:08.850Z,12.13
2022-12-26T06:59:36.544Z,14.75
2022-12-26T07:02:04.290Z,12.98
2022-12-26T07:04:32.011Z,14.23
2022-12-26T07:06:59.663Z,13.32
2022-12-26T07:09:33.435Z,15.15
2022-12-26T07:12:02.018Z,13.63
2022-12-26T07:14:31.089Z,11.65
2022-12-26T07:16:58.759Z,12.43
2022-12-26T07:19:26.519Z,14.38
2022-12-26T07:21:54.161Z,13.63
2022-12-26T07:24:23.422Z,11.23
2022-12-26T07:26:51.331Z,13.40
2022-12-26T07:29:19.359Z,11.70
2022-12-26T07:31:48.486Z,11.10
2022-12-26T07:34:16.515Z,11.27
2022-12-26T07:36:44.215Z,10.27
2022-12-26T07:39:14.272Z,14.90
2022-12-26T07:42:00.120Z,9.63
2022-12-26T07:44:29.321Z,13.05
2022-12-26T07:46:59.015Z,12.40
2022-12-26T07:49:28.238Z,11.23
2022-12-26T07:54:23.606Z,9.77
2022-12-26T07:56:51.287Z,11.20
2022-12-26T07:59:19.163Z,10.38
2022-12-26T08:01:47.001Z,8.98
2022-12-26T08:04:16.139Z,15.50
2022-12-26T08:06:43.830Z,8.68
2022-12-26T08:09:15.896Z,9.68
2022-12-26T08:11:45.431Z,9.00
2022-12-26T08:14:16.713Z,8.23
2022-12-26T08:16:49.678Z,12.80
2022-12-26T08:19:22.138Z,11.18
2022-12-26T08:21:49.818Z,10.77
2022-12-26T08:24:17.605Z,10.85
2022-12-26T08:26:45.257Z,11.55
2022-12-26T08:29:13.077Z,10.57
2022-12-26T08:31:40.882Z,8.40
2022-12-26T08:36:39.239Z,10.38
2022-12-26T08:39:07.003Z,9.77
2022-12-26T08:41:34.740Z,6.93
2022-12-26T08:46:50.107Z,12.20
2022-12-26T08:49:17.918Z,9.65
2022-12-26T08:51:46.974Z,10.82
2022-12-26T08:54:14.673Z,9.38
2022-12-26T08:56:42.370Z,6.63
2022-12-26T08:59:10.033Z,10.70
2022-12-26T09:01:38.885Z,7.65
2022-12-26T09:04:07.604Z,8.82
2022-12-26T09:06:37.287Z,8.02
2022-12-26T09:09:07.367Z,7.07
2022-12-26T09:11:35.411Z,7.50
2022-12-26T09:14:04.679Z,7.72
2022-12-26T09:16:39.269Z,9.15
2022-12-26T09:19:07.834Z,9.30
2022-12-26T09:21:35.485Z,8.27
2022-12-26T09:24:05.452Z,10.07
2022-12-26T09:26:34.591Z,6.53
2022-12-26T09:29:02.278Z,6.22
2022-12-26T09:31:32.244Z,8.27
2022-12-26T09:34:00.331Z,8.80
2022-12-26T09:36:31.261Z,6.68
2022-12-26T09:38:59.822Z,10.70
2022-12-26T09:41:47.570Z,7.25
2022-12-26T09:44:20.559Z,7.43
2022-12-26T09:46:57.070Z,10.23
2022-12-26T09:49:29.049Z,7.38
2022-12-26T09:52:00.139Z,8.32
2022-12-26T09:54:32.830Z,7.43
2022-12-26T09:57:11.276Z,7.50
2022-12-26T09:59:48.630Z,9.52
2022-12-26T10:02:19.969Z,6.15
2022-12-26T10:04:48.212Z,10.38
2022-12-26T10:07:28.208Z,5.30
2022-12-26T10:10:04.552Z,7.00
2022-12-26T10:12:47.434Z,6.65
2022-12-26T10:15:35.535Z,5.13
2022-12-26T10:18:16.906Z,7.78
2022-12-26T10:20:55.472Z,6.53
2022-12-26T10:23:34.334Z,11.98
2022-12-26T10:26:12.085Z,4.32
2022-12-26T10:28:46.091Z,9.93
2022-12-26T10:31:20.017Z,8.90
2022-12-26T10:33:56.895Z,8.73
2022-12-26T10:36:35.271Z,11.45
2022-12-26T10:39:06.954Z,5.78
2022-12-26T10:41:41.132Z,7.80
2022-12-26T10:44:12.683Z,6.00
2022-12-26T10:47:15.301Z,6.53
2022-12-26T10:49:46.091Z,5.70
2022-12-26T10:52:15.524Z,7.88
2022-12-26T10:54:43.400Z,7.35
2022-12-26T10:57:11.320Z,5.90
2022-12-26T10:59:47.092Z,7.55
2022-12-26T11:02:23.237Z,7.78
2022-12-26T11:05:15.988Z,7.10
2022-12-26T11:07:58.480Z,4.82
2022-12-26T11:10:30.266Z,4.07
2022-12-26T11:13:02.459Z,4.80
2022-12-26T11:15:35.094Z,7.00
2022-12-26T11:18:17.838Z,8.20
2022-12-26T11:20:46.156Z,4.28
2022-12-26T11:23:25.592Z,2.85
2022-12-26T11:25:55.110Z,7.13
2022-12-26T11:28:30.211Z,5.78
2022-12-26T11:31:01.004Z,5.65
2022-12-26T11:33:31.632Z,4.95
2022-12-26T11:36:13.034Z,3.72
2022-12-26T11:38:49.392Z,2.90
2022-12-26T11:41:36.820Z,3.80
2022-12-26T11:44:17.703Z,2.95
2022-12-26T11:46:50.959Z,3.75
2022-12-26T11:49:23.689Z,6.63
2022-12-26T11:51:58.827Z,3.45
2022-12-26T11:54:34.581Z,5.43
2022-12-26T11:57:20.220Z,6.97
2022-12-26T11:59:49.241Z,2.30
2022-12-26T12:02:23.782Z,5.03
2022-12-26T12:04:54.213Z,3.30
2022-12-26T12:07:43.909Z,3.72
2022-12-26T12:10:35.209Z,2.45
2022-12-26T12:13:08.641Z,3.60
2022-12-26T12:15:45.307Z,4.78
2022-12-26T12:18:22.867Z,3.13
2022-12-26T12:21:01.745Z,2.70
2022-12-26T12:23:43.827Z,5.22
2022-12-26T12:26:16.102Z,3.58
2022-12-26T12:29:01.174Z,4.07
2022-12-26T12:31:41.579Z,5.68
2022-12-26T12:34:23.275Z,4.45
2022-12-26T12:37:02.256Z,5.32
2022-12-26T12:39:40.695Z,4.63
2022-12-26T12:42:29.575Z,7.43
2022-12-26T12:45:10.406Z,4.03
2022-12-26T12:47:50.842Z,3.63
2022-12-26T12:50:26.373Z,2.80
2022-12-26T12:53:06.422Z,2.97
2022-12-26T12:55:44.625Z,5.35
2022-12-26T12:58:23.291Z,6.85
2022-12-26T13:00:54.928Z,3.80
2022-12-26T13:03:30.648Z,3.63
2022-12-26T13:06:05.962Z,3.05
2022-12-26T13:08:40.157Z,5.07
2022-12-26T13:11:12.185Z,9.70
2022-12-26T13:13:53.226Z,4.30
2022-12-26T13:18:54.578Z,6.68
2022-12-26T13:21:24.003Z,8.18
2022-12-26T13:24:13.777Z,7.97
2022-12-26T13:26:44.926Z,3.10
2022-12-26T13:29:16.942Z,4.35
2022-12-26T13:31:46.321Z,3.03
2022-12-26T13:34:17.950Z,3.85
2022-12-26T13:36:49.319Z,2.60
2022-12-26T13:39:41.766Z,4.00
2022-12-26T13:42:51.211Z,4.53
2022-12-26T13:45:47.448Z,5.00
2022-12-26T13:48:56.975Z,4.00
2022-12-26T13:51:44.786Z,4.47
2022-12-26T13:54:15.134Z,3.47
2022-12-26T13:57:19.567Z,4.50
2022-12-26T13:59:59.647Z,3.85
2022-12-26T14:03:17.411Z,4.20
2022-12-26T14:05:59.180Z,4.22
2022-12-26T14:08:37.626Z,4.72
2022-12-26T14:11:23.415Z,5.65
2022-12-26T14:14:06.448Z,5.90
2022-12-26T14:16:42.732Z,5.22
2022-12-26T14:19:31.357Z,3.42
2022-12-26T14:22:06.037Z,8.88
2022-12-26T14:24:44.476Z,4.43
2022-12-26T14:27:27.689Z,5.50
2022-12-26T14:30:05.787Z,8.32
2022-12-26T14:32:43.467Z,6.07
2022-12-26T14:35:19.814Z,4.05
2022-12-26T14:37:58.773Z,6.30
2022-12-26T14:40:33.596Z,4.97
2022-12-26T14:43:11.724Z,5.22
2022-12-26T14:45:43.278Z,5.85
2022-12-26T14:48:46.869Z,7.78
2022-12-26T14:51:39.614Z,4.45
2022-12-26T14:54:50.872Z,8.88
2022-12-26T14:57:47.711Z,5.75
2022-12-26T15:00:34.917Z,4.07
2022-12-26T15:03:38.133Z,3.53
2022-12-26T15:06:36.198Z,4.68
2022-12-26T15:09:15.952Z,7.50
2022-12-26T15:12:14.411Z,4.22
2022-12-26T15:15:19.682Z,4.53
2022-12-26T15:18:04.737Z,4.65
2022-12-26T15:21:05.433Z,5.88
2022-12-26T15:24:04.620Z,5.45
2022-12-26T15:26:59.580Z,5.60
2022-12-26T15:29:47.501Z,7.90
2022-12-26T15:32:21.809Z,5.20
2022-12-26T15:34:58.814Z,6.93
2022-12-26T15:37:42.543Z,4.32
2022-12-26T15:40:15.823Z,10.27
2022-12-26T15:42:55.858Z,6.07
2022-12-26T15:45:39.117Z,5.82
2022-12-26T15:48:18.394Z,6.22
2022-12-26T15:50:56.130Z,5.20
2022-12-26T15:53:33.680Z,8.40
2022-12-26T15:56:26.312Z,5.45
2022-12-26T15:59:17.200Z,5.25
2022-12-26T16:01:48.824Z,5.30
2022-12-26T16:04:22.349Z,6.40
2022-12-26T16:07:20.460Z,8.30
2022-12-26T16:09:51.811Z,5.82
2022-12-26T16:12:26.100Z,4.75
2022-12-26T16:15:16.818Z,7.68
2022-12-26T16:17:46.577Z,8.70
2022-12-26T16:20:40.358Z,8.57
2022-12-26T16:23:14.134Z,8.40
2022-12-26T16:25:46.998Z,7.38
2022-12-26T16:28:15.010Z,6.93
2022-12-26T16:30:43.466Z,7.03
2022-12-26T16:33:14.250Z,7.05
2022-12-26T16:35:43.825Z,4.32
2022-12-26T16:38:16.768Z,5.80
2022-12-26T16:40:45.945Z,10.13
2022-12-26T16:43:27.215Z,8.07
2022-12-26T16:45:58.711Z,10.40
2022-12-26T16:48:29.163Z,11.50
2022-12-26T16:50:58.978Z,9.40
2022-12-26T16:53:43.463Z,8.90
2022-12-26T16:56:27.593Z,10.13
2022-12-26T16:59:04.026Z,9.40
2022-12-26T17:01:33.468Z,6.00
2022-12-26T17:04:04.793Z,7.53
2022-12-26T17:06:35.306Z,6.95
2022-12-26T17:09:10.759Z,5.20
2022-12-26T17:11:46.166Z,9.25
2022-12-26T17:14:20.755Z,11.23
2022-12-26T17:16:48.501Z,6.75
2022-12-26T17:19:19.658Z,8.35
2022-12-26T17:22:21.764Z,8.75
2022-12-26T17:24:52.336Z,6.82
2022-12-26T17:27:23.384Z,5.95
2022-12-26T17:29:57.793Z,14.07
2022-12-26T17:32:35.863Z,7.40
2022-12-26T17:35:07.371Z,6.07
2022-12-26T17:37:35.400Z,9.80
2022-12-26T17:40:21.015Z,9.38
2022-12-26T17:42:50.767Z,7.80
2022-12-26T17:45:20.586Z,7.72
2022-12-26T17:47:48.390Z,7.82
2022-12-26T17:50:16.181Z,5.97
2022-12-26T17:52:44.011Z,8.52
2022-12-26T17:55:19.765Z,8.15
2022-12-26T17:57:47.503Z,8.32
2022-12-26T18:00:21.057Z,5.88
2022-12-26T18:02:49.418Z,11.38
2022-12-26T18:05:17.673Z,7.60
2022-12-26T18:07:46.375Z,8.65
2022-12-26T18:10:21.564Z,11.77
2022-12-26T18:12:50.027Z,9.85
2022-12-26T18:15:18.372Z,7.57
2022-12-26T18:20:18.141Z,7.00
2022-12-26T18:22:47.609Z,9.02
2022-12-26T18:25:16.654Z,7.93
2022-12-26T18:27:46.210Z,8.25
2022-12-26T18:30:18.153Z,8.23
2022-12-26T18:32:46.876Z,10.05
2022-12-26T18:35:14.916Z,8.23
2022-12-26T18:37:45.529Z,9.02
2022-12-26T18:40:29.737Z,16.00
2022-12-26T18:42:58.821Z,5.68
2022-12-26T18:45:26.871Z,6.03
2022-12-26T18:47:54.697Z,9.48
2022-12-26T18:50:23.059Z,10.07
2022-12-26T18:55:22.496Z,7.63
2022-12-26T18:57:50.657Z,11.52
2022-12-26T19:00:21.163Z,7.90
2022-12-26T19:02:49.362Z,7.63
2022-12-26T19:05:19.417Z,8.73
2022-12-26T19:07:48.408Z,6.85
2022-12-26T19:10:17.611Z,7.18
2022-12-26T19:12:45.992Z,10.85
2022-12-26T19:17:43.757Z,12.15
2022-12-26T19:20:22.327Z,10.38
2022-12-26T19:22:50.974Z,12.77
2022-12-26T19:25:20.706Z,8.10
2022-12-26T19:27:49.550Z,8.15
2022-12-26T19:30:18.282Z,7.65
2022-12-26T19:32:47.846Z,6.65
2022-12-26T19:35:16.459Z,10.40
2022-12-26T19:37:44.488Z,12.43
2022-12-26T19:40:13.199Z,7.10
2022-12-26T19:42:40.989Z,10.50
2022-12-26T19:45:10.747Z,9.00
2022-12-26T19:47:38.782Z,6.50
2022-12-26T19:50:09.537Z,9.15
2022-12-26T19:52:38.783Z,6.80
2022-12-26T19:55:07.957Z,7.55
2022-12-26T19:57:35.691Z,6.28
2022-12-26T20:00:03.367Z,5.88
2022-12-26T20:02:31.184Z,8.32
2022-12-26T20:04:58.901Z,7.80
2022-12-26T20:07:27.940Z,6.00
2022-12-26T20:09:55.749Z,10.55
2022-12-26T20:12:23.427Z,7.03
2022-12-26T20:14:51.226Z,4.30
2022-12-26T20:17:18.992Z,6.88
2022-12-26T20:19:47.566Z,5.72
2022-12-26T20:22:15.289Z,8.00
2022-12-26T20:24:46.734Z,7.32
2022-12-26T20:27:15.824Z,3.90
2022-12-26T20:29:43.520Z,6.20
2022-12-26T20:32:11.349Z,7.55
2022-12-26T20:34:39.291Z,6.28
2022-12-26T20:37:07.053Z,9.73
2022-12-26T20:39:34.729Z,4.95
2022-12-26T20:42:03.791Z,5.32
2022-12-26T20:44:31.456Z,11.77
2022-12-26T20:46:59.130Z,6.00
2022-12-26T20:49:26.851Z,5.95
2022-12-26T20:51:54.526Z,5.40
2022-12-26T20:54:22.709Z,6.57
2022-12-26T20:56:50.343Z,7.75
2022-12-26T20:59:19.552Z,7.88
2022-12-26T21:01:47.249Z,4.97
2022-12-26T21:04:19.042Z,7.85
2022-12-26T21:06:47.552Z,8.85
2022-12-26T21:09:15.738Z,4.88
2022-12-26T21:11:45.301Z,7.75
2022-12-26T21:14:14.602Z,6.97
2022-12-26T21:16:45.990Z,6.90
2022-12-26T21:19:15.560Z,6.57
2022-12-26T21:21:45.144Z,5.55
2022-12-26T21:24:14.826Z,8.25
2022-12-26T21:26:43.736Z,4.45
2022-12-26T21:29:14.775Z,5.10
2022-12-26T21:31:43.848Z,3.65
2022-12-26T21:34:15.279Z,6.80
2022-12-26T21:37:03.271Z,6.10
2022-12-26T21:39:31.307Z,6.18
2022-12-26T21:41:59.110Z,4.03
2022-12-26T21:44:26.836Z,5.95
2022-12-26T21:46:56.039Z,8.20
2022-12-26T21:49:23.943Z,4.63
2022-12-26T21:51:51.608Z,7.68
2022-12-26T21:54:36.713Z,5.57
2022-12-26T21:57:04.661Z,5.38
2022-12-26T21:59:49.763Z,5.18
2022-12-26T22:02:32.914Z,6.68
2022-12-26T22:05:01.362Z,6.38
2022-12-26T22:07:29.435Z,6.65
2022-12-26T22:09:57.225Z,5.65
2022-12-26T22:12:42.429Z,11.27
2022-12-26T22:15:31.867Z,7.85
2022-12-26T22:18:00.947Z,6.35
2022-12-26T22:20:28.787Z,5.20
2022-12-26T22:22:56.758Z,7.38
2022-12-26T22:25:24.398Z,5.93
2022-12-26T22:27:52.222Z,7.03
2022-12-26T22:30:20.077Z,6.60
2022-12-26T22:32:47.733Z,7.22
2022-12-26T22:35:18.945Z,7.35
2022-12-26T22:37:46.780Z,13.13
2022-12-26T22:40:14.680Z,6.43
2022-12-26T22:42:42.445Z,11.90
2022-12-26T22:45:10.799Z,8.60
2022-12-26T22:47:38.633Z,5.93
2022-12-26T22:50:07.008Z,8.32
2022-12-26T22:52:36.079Z,8.93
2022-12-26T22:55:04.068Z,6.22
2022-12-26T22:57:31.792Z,7.35
2022-12-26T23:00:08.764Z,10.38
2022-12-26T23:02:37.732Z,10.15
2022-12-26T23:05:06.626Z,8.80
2022-12-26T23:07:36.265Z,6.13
2022-12-26T23:10:05.162Z,6.15
2022-12-26T23:12:45.411Z,11.63
2022-12-26T23:15:15.586Z,11.38
2022-12-26T23:18:16.761Z,8.32
2022-12-26T23:21:02.393Z,6.90
2022-12-26T23:23:32.113Z,7.50
2022-12-26T23:26:01.640Z,14.60
2022-12-26T23:28:46.973Z,12.23
2022-12-26T23:31:14.840Z,11.77
2022-12-26T23:33:42.587Z,7.90
2022-12-26T23:36:10.486Z,8.50
2022-12-26T23:38:39.542Z,8.80
2022-12-26T23:41:07.196Z,9.32
2022-12-26T23:43:34.845Z,6.60
2022-12-26T23:46:02.495Z,10.80
2022-12-26T23:48:30.203Z,10.60
2022-12-26T23:51:05.077Z,8.13
2022-12-26T23:53:33.033Z,7.15
2022-12-26T23:56:02.015Z,7.57
2022-12-26T23:58:29.807Z,8.35
